createdAt,value
2022-10-01T00:00:55.199Z,100391.53
2022-10-01T00:03:25.168Z,100390.72
2022-10-01T00:06:00.715Z,100385.53
2022-10-01T00:08:28.676Z,100375.50
2022-10-01T00:10:55.041Z,100370.13
2022-10-01T00:13:21.745Z,100348.75
2022-10-01T00:15:48.414Z,100360.94
2022-10-01T00:18:14.754Z,100355.94
2022-10-01T00:20:43.397Z,100345.53
2022-10-01T00:23:11.337Z,100341.16
2022-10-01T00:25:37.995Z,100337.94
2022-10-01T00:28:04.706Z,100323.97
2022-10-01T00:30:31.275Z,100317.38
2022-10-01T00:32:57.651Z,100306.19
2022-10-01T00:35:24.094Z,100296.78
2022-10-01T00:37:52.088Z,100298.59
2022-10-01T00:40:20.880Z,100295.78
2022-10-01T00:42:47.985Z,100266.59
2022-10-01T00:45:16.311Z,100266.59
2022-10-01T00:47:54.523Z,100255.63
2022-10-01T00:50:34.746Z,100250.03
2022-10-01T00:53:04.994Z,100250.03
2022-10-01T00:55:39.486Z,100231.06
2022-10-01T00:58:08.926Z,100231.25
2022-10-01T01:00:37.451Z,100232.03
2022-10-01T01:03:05.599Z,100236.25
2022-10-01T01:05:32.375Z,100225.88
2022-10-01T01:08:01.458Z,100221.47
2022-10-01T01:10:39.592Z,100216.28
2022-10-01T01:13:29.727Z,100215.28
2022-10-01T01:16:20.810Z,100224.66
2022-10-01T01:19:01.804Z,100220.09
2022-10-01T01:22:00.263Z,100206.09
2022-10-01T01:24:51.585Z,100190.50
2022-10-01T01:27:35.865Z,100194.72
2022-10-01T01:30:10.657Z,100170.75
2022-10-01T01:33:04.627Z,100161.34
2022-10-01T01:35:34.982Z,100161.94
2022-10-01T01:38:10.269Z,100132.56
2022-10-01T01:40:40.158Z,100150.75
2022-10-01T01:43:10.994Z,100146.34
2022-10-01T01:45:39.957Z,100145.38
2022-10-01T01:48:09.038Z,100134.78
2022-10-01T01:50:43.420Z,100129.59
2022-10-01T01:53:10.250Z,100136.16
2022-10-01T01:55:37.145Z,100133.56
2022-10-01T01:58:04.126Z,100129.38
2022-10-01T02:00:30.496Z,100127.56
2022-10-01T02:02:58.158Z,100140.38
2022-10-01T02:05:29.079Z,100127.38
2022-10-01T02:07:58.378Z,100123.59
2022-10-01T02:10:51.473Z,100127.78
2022-10-01T02:13:43.713Z,100138.94
2022-10-01T02:16:37.991Z,100132.78
2022-10-01T02:20:12.707Z,100130.16
2022-10-01T02:22:47.126Z,100131.78
2022-10-01T02:25:17.440Z,100119.78
2022-10-01T02:27:53.330Z,100117.97
2022-10-01T02:30:19.899Z,100128.16
2022-10-01T02:32:49.945Z,100131.59
2022-10-01T02:35:19.054Z,100130.56
2022-10-01T02:37:50.398Z,100125.16
2022-10-01T02:40:22.328Z,100127.75
2022-10-01T02:42:54.270Z,100131.19
2022-10-01T02:45:24.235Z,100124.97
2022-10-01T02:47:58.692Z,100131.78
2022-10-01T02:50:29.548Z,100111.78
2022-10-01T02:53:03.058Z,100110.00
2022-10-01T02:55:35.466Z,100113.19
2022-10-01T02:58:01.869Z,100106.97
2022-10-01T03:00:28.636Z,100116.38
2022-10-01T03:02:55.032Z,100109.38
2022-10-01T03:05:23.114Z,100111.19
2022-10-01T03:07:49.525Z,100114.38
2022-10-01T03:10:16.842Z,100111.56
2022-10-01T03:12:46.478Z,100100.00
2022-10-01T03:15:14.639Z,100090.19
2022-10-01T03:17:41.104Z,100096.16
2022-10-01T03:20:08.971Z,100102.00
2022-10-01T03:22:35.455Z,100095.78
2022-10-01T03:25:01.827Z,100094.56
2022-10-01T03:27:28.248Z,100086.78
2022-10-01T03:29:54.636Z,100071.78
2022-10-01T03:32:21.077Z,100075.78
2022-10-01T03:34:47.809Z,100071.38
2022-10-01T03:37:14.381Z,100064.16
2022-10-01T03:39:40.751Z,100067.38
2022-10-01T03:42:09.392Z,100058.56
2022-10-01T03:44:35.855Z,100067.97
2022-10-01T03:47:02.224Z,100068.56
2022-10-01T03:49:28.863Z,100069.97
2022-10-01T03:51:55.435Z,100073.94
2022-10-01T03:54:22.469Z,100067.75
2022-10-01T03:56:49.210Z,100074.53
2022-10-01T03:59:15.872Z,100073.31
2022-10-01T04:01:42.401Z,100073.91
2022-10-01T04:04:09.290Z,100081.50
2022-10-01T04:06:35.749Z,100078.69
2022-10-01T04:09:02.543Z,100073.28
2022-10-01T04:11:29.260Z,100078.28
2022-10-01T04:13:57.879Z,100079.69
2022-10-01T04:16:25.100Z,100080.28
2022-10-01T04:18:51.573Z,100081.88
2022-10-01T04:21:18.002Z,100078.28
2022-10-01T04:23:44.469Z,100085.06
2022-10-01T04:26:11.025Z,100096.06
2022-10-01T04:28:37.493Z,100091.69
2022-10-01T04:31:23.322Z,100100.84
2022-10-01T04:33:52.329Z,100100.66
2022-10-01T04:36:18.690Z,100110.06
2022-10-01T04:38:45.022Z,100105.66
2022-10-01T04:41:11.362Z,100126.25
2022-10-01T04:43:37.721Z,100126.84
2022-10-01T04:46:04.134Z,100128.44
2022-10-01T04:48:30.473Z,100132.44
2022-10-01T04:50:56.829Z,100136.44
2022-10-01T04:53:23.374Z,100136.22
2022-10-01T04:55:49.720Z,100142.00
2022-10-01T04:58:16.051Z,100142.41
2022-10-01T05:00:42.526Z,100151.59
2022-10-01T05:03:09.054Z,100156.59
2022-10-01T05:05:35.466Z,100151.19
2022-10-01T05:08:02.425Z,100151.97
2022-10-01T05:10:29.360Z,100159.00
2022-10-01T05:12:56.460Z,100160.59
2022-10-01T05:15:23.001Z,100171.81
2022-10-01T05:17:49.560Z,100159.00
2022-10-01T05:20:21.365Z,100166.41
2022-10-01T05:22:49.373Z,100165.81
2022-10-01T05:25:17.061Z,100167.59
2022-10-01T05:27:43.454Z,100175.41
2022-10-01T05:30:11.582Z,100188.41
2022-10-01T05:32:38.536Z,100194.63
2022-10-01T05:35:07.162Z,100192.03
2022-10-01T05:37:34.218Z,100206.03
2022-10-01T05:40:01.618Z,100201.22
2022-10-01T05:42:27.994Z,100205.84
2022-10-01T05:44:54.450Z,100211.47
2022-10-01T05:47:20.940Z,100210.88
2022-10-01T05:49:47.542Z,100212.06
2022-10-01T05:52:15.593Z,100219.47
2022-10-01T05:54:42.039Z,100213.28
2022-10-01T05:57:08.549Z,100217.88
2022-10-01T05:59:35.529Z,100229.28
2022-10-01T06:02:02.301Z,100229.28
2022-10-01T06:04:28.825Z,100236.06
2022-10-01T06:06:56.196Z,100242.31
2022-10-01T06:09:22.658Z,100237.66
2022-10-01T06:11:49.456Z,100232.44
2022-10-01T06:14:16.351Z,100238.19
2022-10-01T06:16:42.869Z,100235.50
2022-10-01T06:19:09.626Z,100241.78
2022-10-01T06:21:36.512Z,100237.06
2022-10-01T06:24:03.186Z,100241.91
2022-10-01T06:26:29.590Z,100249.78
2022-10-01T06:28:56.570Z,100246.72
2022-10-01T06:31:23.257Z,100245.59
2022-10-01T06:33:49.687Z,100238.59
2022-10-01T06:36:16.263Z,100238.59
2022-10-01T06:38:43.036Z,100243.97
2022-10-01T06:41:10.079Z,100231.59
2022-10-01T06:43:36.666Z,100242.84
2022-10-01T06:46:05.155Z,100230.00
2022-10-01T06:48:32.360Z,100240.31
2022-10-01T06:50:59.384Z,100248.16
2022-10-01T06:53:28.186Z,100257.41
2022-10-01T06:55:55.426Z,100252.00
2022-10-01T06:58:24.361Z,100260.31
2022-10-01T07:00:50.858Z,100266.44
2022-10-01T07:03:20.962Z,100269.06
2022-10-01T07:05:49.720Z,100261.19
2022-10-01T07:08:16.873Z,100257.00
2022-10-01T07:10:46.581Z,100252.47
2022-10-01T07:13:16.574Z,100262.81
2022-10-01T07:15:43.594Z,100270.97
2022-10-01T07:18:10.701Z,100276.97
2022-10-01T07:20:41.735Z,100286.44
2022-10-01T07:23:11.402Z,100302.41
2022-10-01T07:25:39.854Z,100309.09
2022-10-01T07:28:08.677Z,100318.34
2022-10-01T07:30:35.133Z,100331.34
2022-10-01T07:33:01.538Z,100334.56
2022-10-01T07:35:28.530Z,100328.00
2022-10-01T07:37:55.257Z,100323.88
2022-10-01T07:40:21.924Z,100330.28
2022-10-01T07:42:56.147Z,100330.75
2022-10-01T07:45:23.658Z,100333.09
2022-10-01T07:48:01.515Z,100332.44
2022-10-01T07:50:30.498Z,100333.88
2022-10-01T07:52:58.739Z,100334.59
2022-10-01T07:55:27.145Z,100336.44
2022-10-01T07:57:55.124Z,100340.06
2022-10-01T08:00:23.335Z,100349.16
2022-10-01T08:02:51.829Z,100343.69
2022-10-01T08:05:20.247Z,100342.13
2022-10-01T08:07:47.874Z,100346.22
2022-10-01T08:10:15.962Z,100345.66
2022-10-01T08:12:42.706Z,100359.66
2022-10-01T08:15:14.969Z,100361.34
2022-10-01T08:17:42.022Z,100359.94
2022-10-01T08:20:11.907Z,100356.03
2022-10-01T08:22:41.900Z,100357.66
2022-10-01T08:25:09.346Z,100365.16
2022-10-01T08:27:35.925Z,100372.03
2022-10-01T08:30:02.405Z,100380.72
2022-10-01T08:32:28.973Z,100381.94
2022-10-01T08:34:57.343Z,100378.28
2022-10-01T08:37:25.489Z,100371.88
2022-10-01T08:39:51.830Z,100387.66
2022-10-01T08:42:39.631Z,100392.00
2022-10-01T08:45:13.102Z,100395.72
2022-10-01T08:47:44.134Z,100392.03
2022-10-01T08:50:28.728Z,100394.03
2022-10-01T08:53:01.582Z,100393.97
2022-10-01T08:55:36.208Z,100409.56
2022-10-01T08:58:05.864Z,100407.00
2022-10-01T09:00:36.407Z,100416.50
2022-10-01T09:03:06.343Z,100421.28
2022-10-01T09:05:38.692Z,100415.00
2022-10-01T09:08:24.474Z,100412.78
2022-10-01T09:11:01.431Z,100411.72
2022-10-01T09:13:44.053Z,100414.56
2022-10-01T09:16:24.784Z,100422.44
2022-10-01T09:19:23.618Z,100424.00
2022-10-01T09:21:58.842Z,100424.38
2022-10-01T09:24:43.616Z,100423.56
2022-10-01T09:27:16.981Z,100420.16
2022-10-01T09:29:49.296Z,100432.88
2022-10-01T09:32:20.716Z,100428.06
2022-10-01T09:34:47.672Z,100434.63
2022-10-01T09:37:26.819Z,100440.09
2022-10-01T09:40:21.212Z,100444.31
2022-10-01T09:42:48.049Z,100443.09
2022-10-01T09:45:15.976Z,100440.75
2022-10-01T09:47:47.198Z,100447.69
2022-10-01T09:50:18.199Z,100451.22
2022-10-01T09:52:48.742Z,100447.13
2022-10-01T09:55:18.209Z,100441.31
2022-10-01T09:57:53.873Z,100438.41
2022-10-01T10:00:22.902Z,100440.22
2022-10-01T10:02:51.364Z,100452.81
2022-10-01T10:05:24.366Z,100459.25
2022-10-01T10:07:54.448Z,100474.63
2022-10-01T10:10:28.356Z,100482.31
2022-10-01T10:13:02.107Z,100478.03
2022-10-01T10:15:32.476Z,100485.81
2022-10-01T10:18:11.485Z,100497.22
2022-10-01T10:20:43.992Z,100495.91
2022-10-01T10:23:19.379Z,100506.28
2022-10-01T10:25:55.947Z,100508.69
2022-10-01T10:28:24.224Z,100514.63
2022-10-01T10:30:54.035Z,100516.00
2022-10-01T10:33:21.963Z,100524.47
2022-10-01T10:36:04.904Z,100521.88
2022-10-01T10:38:33.602Z,100537.16
2022-10-01T10:41:01.282Z,100538.28
2022-10-01T10:43:34.601Z,100537.72
2022-10-01T10:46:01.887Z,100538.50
2022-10-01T10:48:36.095Z,100537.44
2022-10-01T10:51:05.378Z,100535.88
2022-10-01T10:53:45.963Z,100535.34
2022-10-01T10:56:24.670Z,100534.84
2022-10-01T10:58:52.053Z,100537.00
2022-10-01T11:01:27.060Z,100550.41
2022-10-01T11:04:21.915Z,100556.00
2022-10-01T11:07:01.450Z,100563.88
2022-10-01T11:09:35.614Z,100574.66
2022-10-01T11:12:16.407Z,100578.94
2022-10-01T11:14:55.374Z,100572.72
2022-10-01T11:17:43.856Z,100597.44
2022-10-01T11:20:21.239Z,100590.13
2022-10-01T11:23:06.998Z,100593.22
2022-10-01T11:25:48.114Z,100608.97
2022-10-01T11:28:29.565Z,100615.69
2022-10-01T11:31:06.315Z,100621.44
2022-10-01T11:33:44.966Z,100618.25
2022-10-01T11:36:28.192Z,100633.97
2022-10-01T11:38:54.501Z,100635.31
2022-10-01T11:41:30.715Z,100645.13
2022-10-01T11:44:03.853Z,100634.75
2022-10-01T11:46:51.742Z,100644.13
2022-10-01T11:49:32.652Z,100646.88
2022-10-01T11:52:21.981Z,100649.09
2022-10-01T11:55:42.357Z,100654.00
2022-10-01T11:58:38.095Z,100651.78
2022-10-01T12:01:11.638Z,100661.34
2022-10-01T12:04:06.696Z,100672.19
2022-10-01T12:06:40.666Z,100666.63
2022-10-01T12:09:34.257Z,100679.28
2022-10-01T12:12:07.162Z,100683.72
2022-10-01T12:14:46.413Z,100690.81
2022-10-01T12:17:51.716Z,100683.75
2022-10-01T12:20:27.772Z,100686.47
2022-10-01T12:22:56.247Z,100693.78
2022-10-01T12:25:29.214Z,100691.56
2022-10-01T12:28:10.617Z,100694.13
2022-10-01T12:30:49.646Z,100694.66
2022-10-01T12:33:35.857Z,100690.47
2022-10-01T12:36:28.742Z,100708.31
2022-10-01T12:39:03.852Z,100698.47
2022-10-01T12:41:44.591Z,100710.06
2022-10-01T12:44:19.269Z,100706.59
2022-10-01T12:47:07.702Z,100717.34
2022-10-01T12:49:43.177Z,100721.38
2022-10-01T12:52:44.839Z,100736.00
2022-10-01T12:55:33.423Z,100745.25
2022-10-01T12:58:31.115Z,100744.44
2022-10-01T13:01:05.148Z,100742.72
2022-10-01T13:03:50.614Z,100760.09
2022-10-01T13:06:16.861Z,100741.81
2022-10-01T13:09:01.478Z,100749.44
2022-10-01T13:12:01.245Z,100744.44
2022-10-01T13:14:28.319Z,100755.06
2022-10-01T13:17:15.231Z,100758.50
2022-10-01T13:19:57.593Z,100757.78
2022-10-01T13:22:51.693Z,100775.78
2022-10-01T13:25:50.575Z,100778.00
2022-10-01T13:28:22.680Z,100780.53
2022-10-01T13:31:09.769Z,100790.84
2022-10-01T13:33:36.223Z,100784.69
2022-10-01T13:36:05.712Z,100787.91
2022-10-01T13:38:38.073Z,100797.25
2022-10-01T13:41:07.695Z,100794.41
2022-10-01T13:43:35.367Z,100802.72
2022-10-01T13:46:08.976Z,100799.25
2022-10-01T13:48:37.721Z,100808.34
2022-10-01T13:51:13.258Z,100815.47
2022-10-01T13:53:42.535Z,100823.31
2022-10-01T13:56:12.828Z,100826.50
2022-10-01T13:58:44.039Z,100819.63
2022-10-01T14:01:21.325Z,100833.00
2022-10-01T14:04:05.815Z,100828.69
2022-10-01T14:06:35.732Z,100840.31
2022-10-01T14:09:13.933Z,100830.03
2022-10-01T14:12:06.569Z,100837.00
2022-10-01T14:14:55.722Z,100837.16
2022-10-01T14:17:26.426Z,100849.59
2022-10-01T14:19:53.131Z,100845.56
2022-10-01T14:22:36.053Z,100841.59
2022-10-01T14:25:24.357Z,100848.09
2022-10-01T14:28:00.617Z,100854.41
2022-10-01T14:30:59.892Z,100851.19
2022-10-01T14:33:44.269Z,100866.63
2022-10-01T14:36:32.340Z,100870.59
2022-10-01T14:39:12.366Z,100897.97
2022-10-01T14:41:38.930Z,100895.66
2022-10-01T14:44:21.187Z,100884.31
2022-10-01T14:46:49.171Z,100896.47
2022-10-01T14:49:28.300Z,100904.09
2022-10-01T14:52:06.946Z,100896.84
2022-10-01T14:54:44.895Z,100897.88
2022-10-01T14:57:16.042Z,100893.56
2022-10-01T14:59:42.515Z,100903.78
2022-10-01T15:02:22.979Z,100913.84
2022-10-01T15:04:55.328Z,100920.69
2022-10-01T15:07:23.095Z,100929.50
2022-10-01T15:09:49.703Z,100932.75
2022-10-01T15:12:19.484Z,100929.97
2022-10-01T15:14:47.140Z,100932.75
2022-10-01T15:17:21.691Z,100923.38
2022-10-01T15:19:52.167Z,100934.66
2022-10-01T15:22:27.043Z,100933.66
2022-10-01T15:24:57.750Z,100937.22
2022-10-01T15:27:24.783Z,100931.97
2022-10-01T15:29:56.931Z,100937.38
2022-10-01T15:32:24.485Z,100941.75
2022-10-01T15:34:54.920Z,100938.63
2022-10-01T15:37:27.913Z,100951.75
2022-10-01T15:39:54.945Z,100956.19
2022-10-01T15:42:28.126Z,100958.38
2022-10-01T15:45:06.637Z,100967.63
2022-10-01T15:47:33.380Z,100967.63
2022-10-01T15:50:08.688Z,100973.63
2022-10-01T15:52:51.315Z,100985.00
2022-10-01T15:55:22.785Z,100978.78
2022-10-01T15:58:07.368Z,100987.94
2022-10-01T16:00:57.573Z,100982.19
2022-10-01T16:03:28.948Z,100985.44
2022-10-01T16:05:56.204Z,100991.09
2022-10-01T16:08:34.309Z,100996.53
2022-10-01T16:11:12.917Z,101009.00
2022-10-01T16:13:41.513Z,101002.22
2022-10-01T16:16:10.911Z,101009.91
2022-10-01T16:18:37.512Z,101012.16
2022-10-01T16:21:05.675Z,101016.44
2022-10-01T16:23:40.437Z,101019.47
2022-10-01T16:26:28.958Z,101018.31
2022-10-01T16:29:16.969Z,101031.22
2022-10-01T16:31:45.204Z,101029.81
2022-10-01T16:34:17.221Z,101034.84
2022-10-01T16:36:44.518Z,101032.44
2022-10-01T16:39:15.266Z,101030.63
2022-10-01T16:41:44.079Z,101036.84
2022-10-01T16:44:13.112Z,101041.09
2022-10-01T16:46:39.920Z,101040.88
2022-10-01T16:49:11.921Z,101046.72
2022-10-01T16:51:40.169Z,101058.97
2022-10-01T16:54:23.406Z,101051.53
2022-10-01T16:56:51.207Z,101060.59
2022-10-01T16:59:18.395Z,101052.94
2022-10-01T17:01:45.202Z,101068.81
2022-10-01T17:04:13.421Z,101068.00
2022-10-01T17:06:40.675Z,101074.44
2022-10-01T17:09:07.461Z,101078.25
2022-10-01T17:11:34.621Z,101079.84
2022-10-01T17:14:02.891Z,101087.28
2022-10-01T17:16:29.494Z,101089.47
2022-10-01T17:18:55.915Z,101097.09
2022-10-01T17:21:22.294Z,101091.88
2022-10-01T17:23:52.676Z,101081.63
2022-10-01T17:26:20.621Z,101093.31
2022-10-01T17:28:47.017Z,101093.88
2022-10-01T17:31:18.080Z,101099.09
2022-10-01T17:33:45.550Z,101100.66
2022-10-01T17:36:12.000Z,101103.28
2022-10-01T17:38:40.187Z,101101.63
2022-10-01T17:41:07.419Z,101111.25
2022-10-01T17:43:33.824Z,101125.66
2022-10-01T17:46:01.157Z,101124.38
2022-10-01T17:48:28.669Z,101132.38
2022-10-01T17:50:59.967Z,101133.69
2022-10-01T17:53:31.094Z,101132.22
2022-10-01T17:56:06.307Z,101139.41
2022-10-01T17:58:32.642Z,101150.34
2022-10-01T18:00:59.240Z,101150.50
2022-10-01T18:03:25.655Z,101153.06
2022-10-01T18:05:59.984Z,101157.19
2022-10-01T18:08:44.440Z,101161.19
2022-10-01T18:11:12.947Z,101167.56
2022-10-01T18:13:39.763Z,101163.72
2022-10-01T18:16:15.073Z,101176.50
2022-10-01T18:21:32.650Z,101183.44
2022-10-01T18:24:03.455Z,101176.00
2022-10-01T18:26:31.172Z,101190.38
2022-10-01T18:28:57.560Z,101202.00
2022-10-01T18:31:26.589Z,101198.13
2022-10-01T18:34:01.632Z,101196.72
2022-10-01T18:36:46.752Z,101206.66
2022-10-01T18:39:26.561Z,101206.22
2022-10-01T18:41:53.289Z,101215.41
2022-10-01T18:44:20.735Z,101214.94
2022-10-01T18:46:54.949Z,101222.16
2022-10-01T18:49:43.029Z,101225.13
2022-10-01T18:52:35.909Z,101228.91
2022-10-01T18:55:30.313Z,101225.88
2022-10-01T18:58:30.916Z,101230.56
2022-10-01T19:01:06.582Z,101228.50
2022-10-01T19:03:53.884Z,101231.50
2022-10-01T19:06:57.523Z,101238.03
2022-10-01T19:09:55.684Z,101246.38
2022-10-01T19:12:34.826Z,101244.97
2022-10-01T19:15:16.658Z,101251.31
2022-10-01T19:18:00.532Z,101261.13
2022-10-01T19:20:47.795Z,101260.28
2022-10-01T19:23:36.824Z,101261.47
2022-10-01T19:26:27.638Z,101266.84
2022-10-01T19:29:12.752Z,101263.44
2022-10-01T19:31:52.537Z,101260.03
2022-10-01T19:34:34.221Z,101265.22
2022-10-01T19:37:15.154Z,101269.44
2022-10-01T19:39:46.165Z,101278.84
2022-10-01T19:42:24.982Z,101275.91
2022-10-01T19:45:05.690Z,101277.97
2022-10-01T19:47:45.830Z,101277.78
2022-10-01T19:50:25.070Z,101276.81
2022-10-01T19:52:56.056Z,101282.03
2022-10-01T19:55:24.734Z,101285.25
2022-10-01T19:57:52.561Z,101281.31
2022-10-01T20:00:21.726Z,101282.75
2022-10-01T20:03:05.131Z,101281.94
2022-10-01T20:05:58.266Z,101288.28
2022-10-01T20:08:33.708Z,101295.66
2022-10-01T20:11:10.135Z,101303.81
2022-10-01T20:14:39.189Z,101312.16
2022-10-01T20:17:21.333Z,101312.69
2022-10-01T20:20:02.058Z,101316.47
2022-10-01T20:23:02.640Z,101312.41
2022-10-01T20:25:40.775Z,101319.41
2022-10-01T20:28:19.511Z,101317.78
2022-10-01T20:30:58.815Z,101324.00
2022-10-01T20:33:37.009Z,101323.34
2022-10-01T20:36:37.278Z,101330.34
2022-10-01T20:39:14.833Z,101324.69
2022-10-01T20:41:53.178Z,101330.88
2022-10-01T20:44:25.899Z,101325.06
2022-10-01T20:46:58.675Z,101340.03
2022-10-01T20:49:38.632Z,101341.81
2022-10-01T20:52:20.152Z,101343.16
2022-10-01T20:54:59.035Z,101344.13
2022-10-01T20:57:37.235Z,101343.69
2022-10-01T21:00:18.495Z,101340.91
2022-10-01T21:02:59.934Z,101342.88
2022-10-01T21:05:32.659Z,101344.66
2022-10-01T21:08:05.124Z,101344.81
2022-10-01T21:10:52.104Z,101359.63
2022-10-01T21:13:33.112Z,101355.41
2022-10-01T21:16:29.501Z,101358.84
2022-10-01T21:19:18.247Z,101350.41
2022-10-01T21:22:02.338Z,101351.19
2022-10-01T21:24:39.252Z,101347.81
2022-10-01T21:27:36.510Z,101357.56
2022-10-01T21:30:14.214Z,101362.75
2022-10-01T21:33:02.540Z,101364.56
2022-10-01T21:35:51.597Z,101354.31
2022-10-01T21:38:28.397Z,101356.91
2022-10-01T21:41:05.570Z,101359.88
2022-10-01T21:43:47.268Z,101362.63
2022-10-01T21:46:53.138Z,101355.00
2022-10-01T21:49:28.980Z,101362.97
2022-10-01T21:52:22.537Z,101354.56
2022-10-01T21:54:49.379Z,101352.91
2022-10-01T21:57:27.926Z,101357.16
2022-10-01T22:00:22.629Z,101359.75
2022-10-01T22:03:19.108Z,101357.78
2022-10-01T22:06:13.126Z,101366.41
2022-10-01T22:08:55.006Z,101367.03
2022-10-01T22:11:26.103Z,101369.47
2022-10-01T22:14:02.119Z,101377.72
2022-10-01T22:16:34.719Z,101377.72
2022-10-01T22:19:12.819Z,101381.97
2022-10-01T22:21:48.164Z,101386.31
2022-10-01T22:24:18.015Z,101386.16
2022-10-01T22:26:54.031Z,101391.53
2022-10-01T22:29:25.112Z,101390.56
2022-10-01T22:31:55.931Z,101396.22
2022-10-01T22:34:25.860Z,101394.25
2022-10-01T22:37:01.872Z,101389.34
2022-10-01T22:39:39.535Z,101396.63
2022-10-01T22:42:16.080Z,101401.31
2022-10-01T22:44:43.127Z,101414.41
2022-10-01T22:47:45.762Z,101414.38
2022-10-01T22:50:31.983Z,101423.56
2022-10-01T22:53:13.492Z,101421.22
2022-10-01T22:55:56.083Z,101421.97
2022-10-01T22:58:43.606Z,101415.44
2022-10-01T23:01:47.479Z,101412.19
2022-10-01T23:04:32.824Z,101408.97
2022-10-01T23:07:21.291Z,101401.34
2022-10-01T23:10:00.676Z,101400.97
2022-10-01T23:12:44.194Z,101407.78
2022-10-01T23:15:20.434Z,101411.03
2022-10-01T23:17:57.672Z,101418.53
2022-10-01T23:20:53.343Z,101415.56
2022-10-01T23:23:29.578Z,101420.59
2022-10-01T23:26:05.309Z,101427.41
2022-10-01T23:28:34.806Z,101417.97
2022-10-01T23:31:18.413Z,101426.78
2022-10-01T23:34:10.253Z,101436.56
2022-10-01T23:36:47.868Z,101433.16
2022-10-01T23:39:38.779Z,101440.84
2022-10-01T23:42:42.337Z,101434.34
2022-10-01T23:45:11.842Z,101428.97
2022-10-01T23:47:47.979Z,101446.56
2022-10-01T23:50:29.824Z,101447.38
2022-10-01T23:53:25.099Z,101442.97
2022-10-01T23:56:15.627Z,101434.56
2022-10-01T23:58:48.445Z,101451.94
